sensor_id;sensor_type;location;lat;lon;timestamp;temperature;humidity
25923;DHT22;13725;51.170;4.442;2024-02-23T00:00:01;5.30;99.90
25923;DHT22;13725;51.170;4.442;2024-02-23T00:02:31;5.30;99.90
25923;DHT22;13725;51.170;4.442;2024-02-23T00:04:57;5.40;99.90
25923;DHT22;13725;51.170;4.442;2024-02-23T00:07:22;5.40;99.90
25923;DHT22;13725;51.170;4.442;2024-02-23T00:09:48;5.50;99.90
25923;DHT22;13725;51.170;4.442;2024-02-23T00:12:14;5.40;99.90
25923;DHT22;13725;51.170;4.442;2024-02-23T00:14:39;5.50;99.90
25923;DHT22;13725;51.170;4.442;2024-02-23T00:17:05;5.50;99.90
25923;DHT22;13725;51.170;4.442;2024-02-23T00:19:31;5.50;99.90
25923;DHT22;13725;51.170;4.442;2024-02-23T00:21:57;5.40;99.90
25923;DHT22;13725;51.170;4.442;2024-02-23T00:24:25;5.40;99.90
25923;DHT22;13725;51.170;4.442;2024-02-23T00:26:51;5.30;99.90
25923;DHT22;13725;51.170;4.442;2024-02-23T00:29:17;5.30;99.90
25923;DHT22;13725;51.170;4.442;2024-02-23T00:31:43;5.30;99.90
25923;DHT22;13725;51.170;4.442;2024-02-23T00:34:11;5.40;99.90
25923;DHT22;13725;51.170;4.442;2024-02-23T00:36:40;5.40;99.90
25923;DHT22;13725;51.170;4.442;2024-02-23T00:39:07;5.50;99.90
25923;DHT22;13725;51.170;4.442;2024-02-23T00:41:36;5.60;99.90
25923;DHT22;13725;51.170;4.442;2024-02-23T00:44:03;5.70;99.90
25923;DHT22;13725;51.170;4.442;2024-02-23T00:46:29;5.70;99.90
25923;DHT22;13725;51.170;4.442;2024-02-23T00:48:55;5.80;99.90
25923;DHT22;13725;51.170;4.442;2024-02-23T00:51:21;5.80;99.90
25923;DHT22;13725;51.170;4.442;2024-02-23T00:53:47;5.80;99.90
25923;DHT22;13725;51.170;4.442;2024-02-23T00:56:12;5.90;99.90
25923;DHT22;13725;51.170;4.442;2024-02-23T00:58:39;5.90;99.90
25923;DHT22;13725;51.170;4.442;2024-02-23T01:01:05;5.90;99.90
25923;DHT22;13725;51.170;4.442;2024-02-23T01:03:31;5.80;99.90
25923;DHT22;13725;51.170;4.442;2024-02-23T01:05:56;5.80;99.90
25923;DHT22;13725;51.170;4.442;2024-02-23T01:08:22;5.90;99.90
25923;DHT22;13725;51.170;4.442;2024-02-23T01:10:48;5.80;99.90
25923;DHT22;13725;51.170;4.442;2024-02-23T01:13:13;5.90;99.90
25923;DHT22;13725;51.170;4.442;2024-02-23T01:15:39;6.00;99.90
25923;DHT22;13725;51.170;4.442;2024-02-23T01:18:05;5.90;99.90
25923;DHT22;13725;51.170;4.442;2024-02-23T01:20:34;5.80;99.90
25923;DHT22;13725;51.170;4.442;2024-02-23T01:23:00;5.90;99.90
25923;DHT22;13725;51.170;4.442;2024-02-23T01:25:26;5.90;99.90
25923;DHT22;13725;51.170;4.442;2024-02-23T01:27:52;5.90;99.90
25923;DHT22;13725;51.170;4.442;2024-02-23T01:30:18;5.90;99.90
25923;DHT22;13725;51.170;4.442;2024-02-23T01:32:46;5.90;99.90
25923;DHT22;13725;51.170;4.442;2024-02-23T01:35:12;5.80;99.90
25923;DHT22;13725;51.170;4.442;2024-02-23T01:37:38;5.60;99.90
25923;DHT22;13725;51.170;4.442;2024-02-23T01:40:04;5.60;99.90
25923;DHT22;13725;51.170;4.442;2024-02-23T01:42:30;5.70;99.90
25923;DHT22;13725;51.170;4.442;2024-02-23T01:44:55;5.70;99.90
25923;DHT22;13725;51.170;4.442;2024-02-23T01:47:23;5.70;99.90
25923;DHT22;13725;51.170;4.442;2024-02-23T01:49:49;5.60;99.90
25923;DHT22;13725;51.170;4.442;2024-02-23T01:52:16;5.50;99.90
25923;DHT22;13725;51.170;4.442;2024-02-23T01:54:43;5.40;99.90
25923;DHT22;13725;51.170;4.442;2024-02-23T01:57:09;5.30;99.90
25923;DHT22;13725;51.170;4.442;2024-02-23T01:59:36;5.20;99.90
25923;DHT22;13725;51.170;4.442;2024-02-23T02:02:04;5.30;99.90
25923;DHT22;13725;51.170;4.442;2024-02-23T02:04:30;5.20;99.90
25923;DHT22;13725;51.170;4.442;2024-02-23T02:06:57;5.10;99.90
25923;DHT22;13725;51.170;4.442;2024-02-23T02:09:24;5.10;99.90
25923;DHT22;13725;51.170;4.442;2024-02-23T02:11:50;5.10;99.90
25923;DHT22;13725;51.170;4.442;2024-02-23T02:14:16;5.10;99.90
25923;DHT22;13725;51.170;4.442;2024-02-23T02:16:42;5.20;99.90
25923;DHT22;13725;51.170;4.442;2024-02-23T02:19:14;5.10;99.90
25923;DHT22;13725;51.170;4.442;2024-02-23T02:21:40;5.20;99.90
25923;DHT22;13725;51.170;4.442;2024-02-23T02:24:06;5.30;99.90
25923;DHT22;13725;51.170;4.442;2024-02-23T02:26:32;5.30;99.90
25923;DHT22;13725;51.170;4.442;2024-02-23T02:28:58;5.30;99.90
25923;DHT22;13725;51.170;4.442;2024-02-23T02:31:24;5.20;99.90
25923;DHT22;13725;51.170;4.442;2024-02-23T02:33:49;5.30;99.90
25923;DHT22;13725;51.170;4.442;2024-02-23T02:36:15;5.30;99.90
25923;DHT22;13725;51.170;4.442;2024-02-23T02:38:40;5.30;99.90
25923;DHT22;13725;51.170;4.442;2024-02-23T02:41:06;5.30;99.90
25923;DHT22;13725;51.170;4.442;2024-02-23T02:43:32;5.50;99.90
25923;DHT22;13725;51.170;4.442;2024-02-23T02:45:58;5.30;99.90
25923;DHT22;13725;51.170;4.442;2024-02-23T02:48:25;5.50;99.90
25923;DHT22;13725;51.170;4.442;2024-02-23T02:50:51;5.60;99.90
25923;DHT22;13725;51.170;4.442;2024-02-23T02:53:17;5.50;99.90
25923;DHT22;13725;51.170;4.442;2024-02-23T02:55:43;5.50;99.90
25923;DHT22;13725;51.170;4.442;2024-02-23T02:58:11;5.50;99.90
25923;DHT22;13725;51.170;4.442;2024-02-23T03:00:37;5.50;99.90
25923;DHT22;13725;51.170;4.442;2024-02-23T03:03:03;5.50;99.90
25923;DHT22;13725;51.170;4.442;2024-02-23T03:05:28;5.60;99.90
25923;DHT22;13725;51.170;4.442;2024-02-23T03:07:54;5.60;99.90
25923;DHT22;13725;51.170;4.442;2024-02-23T03:10:20;5.60;99.90
25923;DHT22;13725;51.170;4.442;2024-02-23T03:12:45;5.50;99.90
25923;DHT22;13725;51.170;4.442;2024-02-23T03:15:11;5.50;99.90
25923;DHT22;13725;51.170;4.442;2024-02-23T03:17:37;5.50;99.90
25923;DHT22;13725;51.170;4.442;2024-02-23T03:20:05;5.70;99.90
25923;DHT22;13725;51.170;4.442;2024-02-23T03:22:34;5.50;99.90
25923;DHT22;13725;51.170;4.442;2024-02-23T03:24:59;5.60;99.90
25923;DHT22;13725;51.170;4.442;2024-02-23T03:27:28;5.50;99.90
25923;DHT22;13725;51.170;4.442;2024-02-23T03:29:57;5.50;99.90
25923;DHT22;13725;51.170;4.442;2024-02-23T03:32:22;5.50;99.90
25923;DHT22;13725;51.170;4.442;2024-02-23T03:34:48;5.40;99.90
25923;DHT22;13725;51.170;4.442;2024-02-23T03:37:14;5.40;99.90
25923;DHT22;13725;51.170;4.442;2024-02-23T03:39:39;5.60;99.90
25923;DHT22;13725;51.170;4.442;2024-02-23T03:42:05;5.50;99.90
25923;DHT22;13725;51.170;4.442;2024-02-23T03:44:31;5.50;99.90
25923;DHT22;13725;51.170;4.442;2024-02-23T03:46:57;5.50;99.90
25923;DHT22;13725;51.170;4.442;2024-02-23T03:49:22;5.60;99.90
25923;DHT22;13725;51.170;4.442;2024-02-23T03:51:48;5.60;99.90
25923;DHT22;13725;51.170;4.442;2024-02-23T03:54:14;5.80;99.90
25923;DHT22;13725;51.170;4.442;2024-02-23T03:56:40;5.80;99.90
25923;DHT22;13725;51.170;4.442;2024-02-23T03:59:07;5.80;99.90
25923;DHT22;13725;51.170;4.442;2024-02-23T04:01:38;5.80;99.90
25923;DHT22;13725;51.170;4.442;2024-02-23T04:04:05;5.90;99.90
25923;DHT22;13725;51.170;4.442;2024-02-23T04:06:31;5.90;99.90
25923;DHT22;13725;51.170;4.442;2024-02-23T04:08:57;5.90;99.90
25923;DHT22;13725;51.170;4.442;2024-02-23T04:11:23;6.00;99.90
25923;DHT22;13725;51.170;4.442;2024-02-23T04:13:48;6.20;99.90
25923;DHT22;13725;51.170;4.442;2024-02-23T04:16:14;6.00;99.90
25923;DHT22;13725;51.170;4.442;2024-02-23T04:18:40;6.00;99.90
25923;DHT22;13725;51.170;4.442;2024-02-23T04:21:05;6.10;99.90
25923;DHT22;13725;51.170;4.442;2024-02-23T04:23:31;6.20;99.90
25923;DHT22;13725;51.170;4.442;2024-02-23T04:25:56;6.20;99.90
25923;DHT22;13725;51.170;4.442;2024-02-23T04:28:22;6.20;99.90
25923;DHT22;13725;51.170;4.442;2024-02-23T04:30:48;6.20;99.90
25923;DHT22;13725;51.170;4.442;2024-02-23T04:33:14;6.10;99.90
25923;DHT22;13725;51.170;4.442;2024-02-23T04:35:39;6.20;99.90
25923;DHT22;13725;51.170;4.442;2024-02-23T04:38:05;6.20;99.90
25923;DHT22;13725;51.170;4.442;2024-02-23T04:40:31;6.00;99.90
25923;DHT22;13725;51.170;4.442;2024-02-23T04:42:56;6.00;99.90
25923;DHT22;13725;51.170;4.442;2024-02-23T04:45:22;5.90;99.90
25923;DHT22;13725;51.170;4.442;2024-02-23T04:47:48;6.00;99.90
25923;DHT22;13725;51.170;4.442;2024-02-23T04:50:14;6.10;99.90
25923;DHT22;13725;51.170;4.442;2024-02-23T04:52:40;6.10;99.90
25923;DHT22;13725;51.170;4.442;2024-02-23T04:55:05;6.10;99.90
25923;DHT22;13725;51.170;4.442;2024-02-23T04:57:32;6.10;99.90
25923;DHT22;13725;51.170;4.442;2024-02-23T04:59:57;6.10;99.90
25923;DHT22;13725;51.170;4.442;2024-02-23T05:02:23;6.10;99.90
25923;DHT22;13725;51.170;4.442;2024-02-23T05:04:49;6.10;99.90
25923;DHT22;13725;51.170;4.442;2024-02-23T05:07:14;6.10;99.90
25923;DHT22;13725;51.170;4.442;2024-02-23T05:09:40;6.20;99.90
25923;DHT22;13725;51.170;4.442;2024-02-23T05:12:07;6.20;99.90
25923;DHT22;13725;51.170;4.442;2024-02-23T05:14:33;6.10;99.90
25923;DHT22;13725;51.170;4.442;2024-02-23T05:16:59;6.20;99.90
25923;DHT22;13725;51.170;4.442;2024-02-23T05:19:25;6.10;99.90
25923;DHT22;13725;51.170;4.442;2024-02-23T05:21:50;5.90;99.90
25923;DHT22;13725;51.170;4.442;2024-02-23T05:24:16;6.00;99.90
25923;DHT22;13725;51.170;4.442;2024-02-23T05:26:42;6.10;99.90
25923;DHT22;13725;51.170;4.442;2024-02-23T05:29:09;6.00;99.90
25923;DHT22;13725;51.170;4.442;2024-02-23T05:31:54;6.10;99.90
25923;DHT22;13725;51.170;4.442;2024-02-23T05:34:20;6.20;99.90
25923;DHT22;13725;51.170;4.442;2024-02-23T05:36:46;6.30;99.90
25923;DHT22;13725;51.170;4.442;2024-02-23T05:39:15;6.20;99.90
25923;DHT22;13725;51.170;4.442;2024-02-23T05:41:44;6.20;99.90
25923;DHT22;13725;51.170;4.442;2024-02-23T05:44:10;6.50;99.90
25923;DHT22;13725;51.170;4.442;2024-02-23T05:46:36;6.50;99.90
25923;DHT22;13725;51.170;4.442;2024-02-23T05:49:02;6.60;99.90
25923;DHT22;13725;51.170;4.442;2024-02-23T05:51:30;6.50;99.90
25923;DHT22;13725;51.170;4.442;2024-02-23T05:53:56;6.40;99.90
25923;DHT22;13725;51.170;4.442;2024-02-23T05:56:22;6.30;99.90
25923;DHT22;13725;51.170;4.442;2024-02-23T05:58:53;6.20;99.90
25923;DHT22;13725;51.170;4.442;2024-02-23T06:01:19;6.30;99.90
25923;DHT22;13725;51.170;4.442;2024-02-23T06:03:45;6.30;99.90
25923;DHT22;13725;51.170;4.442;2024-02-23T06:06:11;6.30;99.90
25923;DHT22;13725;51.170;4.442;2024-02-23T06:08:36;6.40;99.90
25923;DHT22;13725;51.170;4.442;2024-02-23T06:11:03;6.50;99.90
25923;DHT22;13725;51.170;4.442;2024-02-23T06:13:32;6.40;99.90
25923;DHT22;13725;51.170;4.442;2024-02-23T06:15:58;6.30;99.90
25923;DHT22;13725;51.170;4.442;2024-02-23T06:18:24;6.30;99.90
25923;DHT22;13725;51.170;4.442;2024-02-23T06:20:50;6.40;99.90
25923;DHT22;13725;51.170;4.442;2024-02-23T06:23:16;6.30;99.90
25923;DHT22;13725;51.170;4.442;2024-02-23T06:25:42;6.30;99.90
25923;DHT22;13725;51.170;4.442;2024-02-23T06:28:09;6.40;99.90
25923;DHT22;13725;51.170;4.442;2024-02-23T06:30:36;6.30;99.90
25923;DHT22;13725;51.170;4.442;2024-02-23T06:33:02;6.10;99.90
25923;DHT22;13725;51.170;4.442;2024-02-23T06:35:27;6.10;99.90
25923;DHT22;13725;51.170;4.442;2024-02-23T06:37:53;6.40;99.90
25923;DHT22;13725;51.170;4.442;2024-02-23T06:40:18;6.20;99.90
25923;DHT22;13725;51.170;4.442;2024-02-23T06:42:44;6.40;99.90
25923;DHT22;13725;51.170;4.442;2024-02-23T06:45:10;6.30;99.90
25923;DHT22;13725;51.170;4.442;2024-02-23T06:47:36;6.40;99.90
25923;DHT22;13725;51.170;4.442;2024-02-23T06:50:02;6.50;99.90
25923;DHT22;13725;51.170;4.442;2024-02-23T06:52:29;6.60;99.90
25923;DHT22;13725;51.170;4.442;2024-02-23T06:54:55;6.50;99.90
25923;DHT22;13725;51.170;4.442;2024-02-23T06:57:20;6.60;99.90
25923;DHT22;13725;51.170;4.442;2024-02-23T06:59:46;6.50;99.90
25923;DHT22;13725;51.170;4.442;2024-02-23T07:02:12;6.50;99.90
25923;DHT22;13725;51.170;4.442;2024-02-23T07:04:38;6.60;99.90
25923;DHT22;13725;51.170;4.442;2024-02-23T07:07:03;6.50;99.90
25923;DHT22;13725;51.170;4.442;2024-02-23T07:09:33;6.60;99.90
25923;DHT22;13725;51.170;4.442;2024-02-23T07:11:59;6.60;99.90
25923;DHT22;13725;51.170;4.442;2024-02-23T07:14:25;6.60;99.90
25923;DHT22;13725;51.170;4.442;2024-02-23T07:16:51;6.60;99.90
25923;DHT22;13725;51.170;4.442;2024-02-23T07:19:17;6.70;99.90
25923;DHT22;13725;51.170;4.442;2024-02-23T07:21:43;6.60;99.90
25923;DHT22;13725;51.170;4.442;2024-02-23T07:24:09;6.50;99.90
25923;DHT22;13725;51.170;4.442;2024-02-23T07:26:35;6.70;99.90
25923;DHT22;13725;51.170;4.442;2024-02-23T07:29:01;6.40;99.90
25923;DHT22;13725;51.170;4.442;2024-02-23T07:31:26;6.50;99.90
25923;DHT22;13725;51.170;4.442;2024-02-23T07:33:52;6.70;99.90
25923;DHT22;13725;51.170;4.442;2024-02-23T07:36:18;6.60;99.90
25923;DHT22;13725;51.170;4.442;2024-02-23T07:38:44;6.70;99.90
25923;DHT22;13725;51.170;4.442;2024-02-23T07:41:12;6.80;99.90
25923;DHT22;13725;51.170;4.442;2024-02-23T07:43:43;6.90;99.90
25923;DHT22;13725;51.170;4.442;2024-02-23T07:46:09;7.10;99.90
25923;DHT22;13725;51.170;4.442;2024-02-23T07:48:36;7.10;99.90
25923;DHT22;13725;51.170;4.442;2024-02-23T07:51:05;7.20;99.90
25923;DHT22;13725;51.170;4.442;2024-02-23T07:53:30;7.50;99.90
25923;DHT22;13725;51.170;4.442;2024-02-23T07:55:57;7.50;99.90
25923;DHT22;13725;51.170;4.442;2024-02-23T07:58:25;7.40;99.90
25923;DHT22;13725;51.170;4.442;2024-02-23T08:00:52;7.30;99.90
25923;DHT22;13725;51.170;4.442;2024-02-23T08:03:18;7.40;99.90
25923;DHT22;13725;51.170;4.442;2024-02-23T08:05:44;7.40;99.90
25923;DHT22;13725;51.170;4.442;2024-02-23T08:08:10;7.40;99.90
25923;DHT22;13725;51.170;4.442;2024-02-23T08:10:35;7.30;99.90
25923;DHT22;13725;51.170;4.442;2024-02-23T08:13:01;7.20;99.90
25923;DHT22;13725;51.170;4.442;2024-02-23T08:15:27;7.20;99.90
25923;DHT22;13725;51.170;4.442;2024-02-23T08:17:53;7.00;99.90
25923;DHT22;13725;51.170;4.442;2024-02-23T08:20:18;6.90;99.90
25923;DHT22;13725;51.170;4.442;2024-02-23T08:22:44;7.10;99.90
25923;DHT22;13725;51.170;4.442;2024-02-23T08:25:10;7.00;99.90
25923;DHT22;13725;51.170;4.442;2024-02-23T08:27:36;6.60;99.90
25923;DHT22;13725;51.170;4.442;2024-02-23T08:30:02;6.70;99.90
25923;DHT22;13725;51.170;4.442;2024-02-23T08:32:27;6.50;99.90
25923;DHT22;13725;51.170;4.442;2024-02-23T08:34:53;6.50;99.90
25923;DHT22;13725;51.170;4.442;2024-02-23T08:37:25;6.40;99.90
25923;DHT22;13725;51.170;4.442;2024-02-23T08:39:51;6.30;99.90
25923;DHT22;13725;51.170;4.442;2024-02-23T08:42:17;6.30;99.90
25923;DHT22;13725;51.170;4.442;2024-02-23T08:44:42;6.40;99.90
25923;DHT22;13725;51.170;4.442;2024-02-23T08:47:08;6.30;99.90
25923;DHT22;13725;51.170;4.442;2024-02-23T08:49:34;6.30;99.90
25923;DHT22;13725;51.170;4.442;2024-02-23T08:52:00;6.40;99.90
25923;DHT22;13725;51.170;4.442;2024-02-23T08:54:25;6.40;99.90
25923;DHT22;13725;51.170;4.442;2024-02-23T08:56:51;6.30;99.90
25923;DHT22;13725;51.170;4.442;2024-02-23T08:59:17;6.30;99.90
25923;DHT22;13725;51.170;4.442;2024-02-23T09:01:42;6.30;99.90
25923;DHT22;13725;51.170;4.442;2024-02-23T09:04:10;6.30;99.90
25923;DHT22;13725;51.170;4.442;2024-02-23T09:06:35;6.40;99.90
25923;DHT22;13725;51.170;4.442;2024-02-23T09:09:01;6.40;99.90
25923;DHT22;13725;51.170;4.442;2024-02-23T09:11:26;6.60;99.90
25923;DHT22;13725;51.170;4.442;2024-02-23T09:13:52;6.60;99.90
25923;DHT22;13725;51.170;4.442;2024-02-23T09:16:18;6.60;99.90
25923;DHT22;13725;51.170;4.442;2024-02-23T09:18:44;6.50;99.90
25923;DHT22;13725;51.170;4.442;2024-02-23T09:21:10;6.40;99.90
25923;DHT22;13725;51.170;4.442;2024-02-23T09:23:35;6.40;99.90
25923;DHT22;13725;51.170;4.442;2024-02-23T09:26:01;6.40;99.90
25923;DHT22;13725;51.170;4.442;2024-02-23T09:28:30;6.50;99.90
25923;DHT22;13725;51.170;4.442;2024-02-23T09:30:55;6.50;99.90
25923;DHT22;13725;51.170;4.442;2024-02-23T09:33:21;6.70;99.90
25923;DHT22;13725;51.170;4.442;2024-02-23T09:35:47;6.60;99.90
25923;DHT22;13725;51.170;4.442;2024-02-23T09:38:12;6.70;99.90
25923;DHT22;13725;51.170;4.442;2024-02-23T09:40:39;7.00;99.90
25923;DHT22;13725;51.170;4.442;2024-02-23T09:43:07;7.10;99.90
25923;DHT22;13725;51.170;4.442;2024-02-23T09:45:33;7.30;99.90
25923;DHT22;13725;51.170;4.442;2024-02-23T09:48:00;7.50;99.90
25923;DHT22;13725;51.170;4.442;2024-02-23T09:50:28;7.80;99.90
25923;DHT22;13725;51.170;4.442;2024-02-23T09:52:56;7.90;99.90
25923;DHT22;13725;51.170;4.442;2024-02-23T09:55:23;8.00;99.90
25923;DHT22;13725;51.170;4.442;2024-02-23T09:57:52;8.10;99.90
25923;DHT22;13725;51.170;4.442;2024-02-23T10:00:23;8.20;99.90
25923;DHT22;13725;51.170;4.442;2024-02-23T10:02:50;8.30;99.90
25923;DHT22;13725;51.170;4.442;2024-02-23T10:05:16;8.40;99.90
25923;DHT22;13725;51.170;4.442;2024-02-23T10:07:42;8.30;99.90
25923;DHT22;13725;51.170;4.442;2024-02-23T10:10:10;8.30;99.90
25923;DHT22;13725;51.170;4.442;2024-02-23T10:12:36;8.20;99.90
25923;DHT22;13725;51.170;4.442;2024-02-23T10:15:06;8.20;99.90
25923;DHT22;13725;51.170;4.442;2024-02-23T10:17:32;8.40;99.90
25923;DHT22;13725;51.170;4.442;2024-02-23T10:19:59;8.50;99.90
25923;DHT22;13725;51.170;4.442;2024-02-23T10:22:25;8.50;99.90
25923;DHT22;13725;51.170;4.442;2024-02-23T10:24:51;8.40;99.90
25923;DHT22;13725;51.170;4.442;2024-02-23T10:27:17;8.50;99.90
25923;DHT22;13725;51.170;4.442;2024-02-23T10:29:43;8.50;99.90
25923;DHT22;13725;51.170;4.442;2024-02-23T10:32:13;8.30;99.90
25923;DHT22;13725;51.170;4.442;2024-02-23T10:34:43;8.10;99.90
25923;DHT22;13725;51.170;4.442;2024-02-23T10:37:09;8.30;99.90
25923;DHT22;13725;51.170;4.442;2024-02-23T10:39:36;8.40;99.90
25923;DHT22;13725;51.170;4.442;2024-02-23T10:42:04;8.60;99.90
25923;DHT22;13725;51.170;4.442;2024-02-23T10:44:32;8.80;99.90
25923;DHT22;13725;51.170;4.442;2024-02-23T10:46:58;8.80;99.90
25923;DHT22;13725;51.170;4.442;2024-02-23T10:49:28;8.90;99.90
25923;DHT22;13725;51.170;4.442;2024-02-23T10:51:55;8.90;99.90
25923;DHT22;13725;51.170;4.442;2024-02-23T10:54:22;9.00;99.90
25923;DHT22;13725;51.170;4.442;2024-02-23T10:56:50;9.20;99.90
25923;DHT22;13725;51.170;4.442;2024-02-23T10:59:17;9.30;99.90
25923;DHT22;13725;51.170;4.442;2024-02-23T11:01:51;9.30;99.90
25923;DHT22;13725;51.170;4.442;2024-02-23T11:04:18;9.20;99.90
25923;DHT22;13725;51.170;4.442;2024-02-23T11:06:51;9.30;99.90
25923;DHT22;13725;51.170;4.442;2024-02-23T11:09:21;9.40;99.90
25923;DHT22;13725;51.170;4.442;2024-02-23T11:11:54;9.60;99.90
25923;DHT22;13725;51.170;4.442;2024-02-23T11:14:36;10.30;99.90
25923;DHT22;13725;51.170;4.442;2024-02-23T11:17:02;11.00;99.90
25923;DHT22;13725;51.170;4.442;2024-02-23T11:19:36;11.10;99.90
25923;DHT22;13725;51.170;4.442;2024-02-23T11:22:02;10.60;99.90
25923;DHT22;13725;51.170;4.442;2024-02-23T11:24:29;10.60;99.90
25923;DHT22;13725;51.170;4.442;2024-02-23T11:27:01;10.80;99.90
25923;DHT22;13725;51.170;4.442;2024-02-23T11:29:36;12.20;99.90
25923;DHT22;13725;51.170;4.442;2024-02-23T11:32:13;13.70;99.90
25923;DHT22;13725;51.170;4.442;2024-02-23T11:34:39;14.50;99.90
25923;DHT22;13725;51.170;4.442;2024-02-23T11:37:11;14.50;99.90
25923;DHT22;13725;51.170;4.442;2024-02-23T11:39:40;14.70;99.90
25923;DHT22;13725;51.170;4.442;2024-02-23T11:42:06;14.50;99.90
25923;DHT22;13725;51.170;4.442;2024-02-23T11:44:32;14.20;99.90
25923;DHT22;13725;51.170;4.442;2024-02-23T11:47:02;13.40;99.90
25923;DHT22;13725;51.170;4.442;2024-02-23T11:49:28;13.00;99.90
25923;DHT22;13725;51.170;4.442;2024-02-23T11:51:55;12.80;99.90
25923;DHT22;13725;51.170;4.442;2024-02-23T11:54:22;12.40;99.90
25923;DHT22;13725;51.170;4.442;2024-02-23T11:56:48;12.50;99.90
25923;DHT22;13725;51.170;4.442;2024-02-23T11:59:25;12.30;99.90
25923;DHT22;13725;51.170;4.442;2024-02-23T12:01:50;11.80;99.90
25923;DHT22;13725;51.170;4.442;2024-02-23T12:04:16;11.40;99.90
25923;DHT22;13725;51.170;4.442;2024-02-23T12:06:42;10.90;99.90
25923;DHT22;13725;51.170;4.442;2024-02-23T12:09:09;10.80;99.90
25923;DHT22;13725;51.170;4.442;2024-02-23T12:11:35;10.70;99.90
25923;DHT22;13725;51.170;4.442;2024-02-23T12:14:01;10.90;99.90
25923;DHT22;13725;51.170;4.442;2024-02-23T12:16:34;11.20;99.90
25923;DHT22;13725;51.170;4.442;2024-02-23T12:19:01;11.20;99.90
25923;DHT22;13725;51.170;4.442;2024-02-23T12:21:28;11.20;99.90
25923;DHT22;13725;51.170;4.442;2024-02-23T12:23:54;11.10;99.90
25923;DHT22;13725;51.170;4.442;2024-02-23T12:26:20;10.80;99.90
25923;DHT22;13725;51.170;4.442;2024-02-23T12:28:46;10.80;99.90
25923;DHT22;13725;51.170;4.442;2024-02-23T12:31:12;10.70;99.90
25923;DHT22;13725;51.170;4.442;2024-02-23T12:33:39;10.50;99.90
25923;DHT22;13725;51.170;4.442;2024-02-23T12:36:06;10.70;99.90
25923;DHT22;13725;51.170;4.442;2024-02-23T12:38:33;10.60;99.90
25923;DHT22;13725;51.170;4.442;2024-02-23T12:41:00;10.60;99.90
25923;DHT22;13725;51.170;4.442;2024-02-23T12:43:26;10.50;99.90
25923;DHT22;13725;51.170;4.442;2024-02-23T12:45:55;10.40;99.90
25923;DHT22;13725;51.170;4.442;2024-02-23T12:48:21;10.50;99.90
25923;DHT22;13725;51.170;4.442;2024-02-23T12:50:48;10.50;99.90
25923;DHT22;13725;51.170;4.442;2024-02-23T12:53:37;10.60;99.90
25923;DHT22;13725;51.170;4.442;2024-02-23T12:56:07;10.30;99.90
25923;DHT22;13725;51.170;4.442;2024-02-23T12:58:35;10.30;99.90
25923;DHT22;13725;51.170;4.442;2024-02-23T13:01:00;10.30;99.90
25923;DHT22;13725;51.170;4.442;2024-02-23T13:03:26;10.40;99.90
25923;DHT22;13725;51.170;4.442;2024-02-23T13:05:53;10.20;99.90
25923;DHT22;13725;51.170;4.442;2024-02-23T13:08:21;10.20;99.90
25923;DHT22;13725;51.170;4.442;2024-02-23T13:10:46;10.40;99.90
25923;DHT22;13725;51.170;4.442;2024-02-23T13:13:13;10.70;99.90
25923;DHT22;13725;51.170;4.442;2024-02-23T13:15:41;10.70;99.90
25923;DHT22;13725;51.170;4.442;2024-02-23T13:18:07;10.80;99.90
25923;DHT22;13725;51.170;4.442;2024-02-23T13:20:33;11.10;99.90
25923;DHT22;13725;51.170;4.442;2024-02-23T13:22:59;11.30;99.90
25923;DHT22;13725;51.170;4.442;2024-02-23T13:25:25;11.20;99.90
25923;DHT22;13725;51.170;4.442;2024-02-23T13:27:50;11.00;99.90
25923;DHT22;13725;51.170;4.442;2024-02-23T13:30:16;10.60;99.90
25923;DHT22;13725;51.170;4.442;2024-02-23T13:32:43;10.50;99.90
25923;DHT22;13725;51.170;4.442;2024-02-23T13:35:08;10.30;99.90
25923;DHT22;13725;51.170;4.442;2024-02-23T13:37:34;10.10;99.90
25923;DHT22;13725;51.170;4.442;2024-02-23T13:40:00;10.10;99.90
25923;DHT22;13725;51.170;4.442;2024-02-23T13:42:26;10.10;99.90
25923;DHT22;13725;51.170;4.442;2024-02-23T13:44:52;10.00;99.90
25923;DHT22;13725;51.170;4.442;2024-02-23T13:47:17;10.10;99.90
25923;DHT22;13725;51.170;4.442;2024-02-23T13:49:43;10.10;99.90
25923;DHT22;13725;51.170;4.442;2024-02-23T13:52:09;10.00;99.90
25923;DHT22;13725;51.170;4.442;2024-02-23T13:54:34;9.90;99.90
25923;DHT22;13725;51.170;4.442;2024-02-23T13:57:00;9.90;99.90
25923;DHT22;13725;51.170;4.442;2024-02-23T13:59:26;10.00;99.90
25923;DHT22;13725;51.170;4.442;2024-02-23T14:01:51;10.00;99.90
25923;DHT22;13725;51.170;4.442;2024-02-23T14:04:18;10.00;99.90
25923;DHT22;13725;51.170;4.442;2024-02-23T14:06:44;10.10;99.90
25923;DHT22;13725;51.170;4.442;2024-02-23T14:09:10;10.30;99.90
25923;DHT22;13725;51.170;4.442;2024-02-23T14:11:36;10.40;99.90
25923;DHT22;13725;51.170;4.442;2024-02-23T14:14:01;10.50;99.90
25923;DHT22;13725;51.170;4.442;2024-02-23T14:16:28;10.60;99.90
25923;DHT22;13725;51.170;4.442;2024-02-23T14:18:54;10.70;99.90
25923;DHT22;13725;51.170;4.442;2024-02-23T14:21:20;10.80;99.90
25923;DHT22;13725;51.170;4.442;2024-02-23T14:23:48;10.90;99.90
25923;DHT22;13725;51.170;4.442;2024-02-23T14:26:14;10.80;99.90
25923;DHT22;13725;51.170;4.442;2024-02-23T14:28:39;10.80;99.90
25923;DHT22;13725;51.170;4.442;2024-02-23T14:31:06;10.80;99.90
25923;DHT22;13725;51.170;4.442;2024-02-23T14:33:32;10.90;99.90
25923;DHT22;13725;51.170;4.442;2024-02-23T14:35:58;10.80;99.90
25923;DHT22;13725;51.170;4.442;2024-02-23T14:38:23;10.60;99.90
25923;DHT22;13725;51.170;4.442;2024-02-23T14:40:49;10.50;99.90
25923;DHT22;13725;51.170;4.442;2024-02-23T14:43:15;10.40;99.90
25923;DHT22;13725;51.170;4.442;2024-02-23T14:45:41;10.50;99.90
25923;DHT22;13725;51.170;4.442;2024-02-23T14:48:07;10.40;99.90
25923;DHT22;13725;51.170;4.442;2024-02-23T14:50:33;10.30;99.90
25923;DHT22;13725;51.170;4.442;2024-02-23T14:52:59;10.20;99.90
25923;DHT22;13725;51.170;4.442;2024-02-23T14:55:25;10.10;99.90
25923;DHT22;13725;51.170;4.442;2024-02-23T14:57:52;10.20;99.90
25923;DHT22;13725;51.170;4.442;2024-02-23T15:00:18;10.30;99.90
25923;DHT22;13725;51.170;4.442;2024-02-23T15:02:43;10.20;99.90
25923;DHT22;13725;51.170;4.442;2024-02-23T15:05:10;10.30;99.90
25923;DHT22;13725;51.170;4.442;2024-02-23T15:07:36;10.50;99.90
25923;DHT22;13725;51.170;4.442;2024-02-23T15:10:03;10.60;99.90
25923;DHT22;13725;51.170;4.442;2024-02-23T15:12:34;10.40;99.90
25923;DHT22;13725;51.170;4.442;2024-02-23T15:15:00;10.60;99.90
25923;DHT22;13725;51.170;4.442;2024-02-23T15:17:26;10.80;99.90
25923;DHT22;13725;51.170;4.442;2024-02-23T15:19:52;10.90;99.90
25923;DHT22;13725;51.170;4.442;2024-02-23T15:22:17;10.60;99.90
25923;DHT22;13725;51.170;4.442;2024-02-23T15:24:44;10.60;99.90
25923;DHT22;13725;51.170;4.442;2024-02-23T15:27:21;10.70;99.90
25923;DHT22;13725;51.170;4.442;2024-02-23T15:29:47;10.60;99.90
25923;DHT22;13725;51.170;4.442;2024-02-23T15:32:14;10.30;99.90
25923;DHT22;13725;51.170;4.442;2024-02-23T15:34:40;10.30;99.90
25923;DHT22;13725;51.170;4.442;2024-02-23T15:37:06;10.10;99.90